Time;durP1;ratioP1;P1;durP2;ratioP2;P2;SDS_P1;SDS_P2;PMS_P1;PMS_P2;Temp;Humidity;BMP_temperature;BMP_pressure;BME280_temperature;BME280_humidity;BME280_pressure;Samples;Min_cycle;Max_cycle;Signal;HPM_P1;HPM_P2
2022/09/09 00:00:49;;;;;;;1.75;0.60;;;15.30;87.90;;;;;;5054754;28;20599;-38
2022/09/09 00:03:19;;;;;;;2.03;0.70;;;15.30;88.00;;;;;;5054971;28;20021;-38
2022/09/09 00:05:45;;;;;;;0.50;0.50;;;15.30;87.70;;;;;;5055095;28;20407;-40
2022/09/09 00:08:20;;;;;;;1.23;0.50;;;15.40;87.10;;;;;;5054651;28;20033;-37
2022/09/09 00:10:56;;;;;;;0.63;0.60;;;15.40;87.20;;;;;;5054470;28;20489;-38
2022/09/09 00:13:36;;;;;;;2.17;0.73;;;15.30;87.40;;;;;;5053561;28;20060;-37
2022/09/09 00:16:14;;;;;;;1.52;0.90;;;15.40;87.40;;;;;;5054397;28;20029;-39
2022/09/09 00:19:17;;;;;;;4.97;1.05;;;15.40;87.40;;;;;;5053503;28;20041;-39
2022/09/09 00:22:03;;;;;;;4.18;0.85;;;15.50;87.50;;;;;;5054743;28;20021;-39
2022/09/09 00:24:38;;;;;;;0.88;0.50;;;15.30;87.90;;;;;;5054688;28;20029;-38
2022/09/09 00:27:31;;;;;;;4.45;0.95;;;15.40;88.20;;;;;;5054937;28;20112;-38
2022/09/09 00:30:18;;;;;;;2.60;0.85;;;15.40;88.10;;;;;;5050297;28;20043;-39
2022/09/09 00:32:44;;;;;;;1.15;1.05;;;15.40;88.20;;;;;;5054429;28;20031;-39
2022/09/09 00:35:18;;;;;;;1.38;0.85;;;15.40;88.40;;;;;;5054477;28;20444;-39
2022/09/09 00:37:47;;;;;;;0.75;0.73;;;15.40;88.60;;;;;;5054547;28;20025;-38
2022/09/09 00:40:37;;;;;;;1.95;0.68;;;15.30;88.70;;;;;;5054141;28;20056;-38
2022/09/09 00:43:16;;;;;;;1.63;0.75;;;15.30;88.70;;;;;;5054523;28;20032;-39
2022/09/09 00:45:59;;;;;;;3.00;0.85;;;15.30;88.90;;;;;;5054223;28;20174;-42
2022/09/09 00:48:51;;;;;;;1.98;0.80;;;15.20;89.00;;;;;;5054195;28;20519;-38
2022/09/09 00:51:42;;;;;;;2.42;1.15;;;15.20;89.40;;;;;;5054145;28;20028;-38
2022/09/09 00:54:25;;;;;;;2.47;1.13;;;15.20;89.50;;;;;;5043663;28;20037;-38
2022/09/09 00:57:00;;;;;;;2.10;1.10;;;15.20;89.50;;;;;;5053984;28;20021;-38
2022/09/09 00:59:45;;;;;;;3.47;1.00;;;15.10;89.50;;;;;;5054135;28;20017;-38
2022/09/09 01:02:47;;;;;;;3.47;1.13;;;15.10;89.50;;;;;;5054455;28;20486;-38
2022/09/09 01:05:22;;;;;;;2.47;0.88;;;15.10;89.70;;;;;;5043285;28;20104;-38
2022/09/09 01:07:49;;;;;;;1.92;0.90;;;15.00;89.80;;;;;;5053650;28;20444;-39
2022/09/09 01:10:46;;;;;;;3.40;1.15;;;15.00;89.90;;;;;;5053450;28;20059;-38
2022/09/09 01:13:21;;;;;;;2.45;0.82;;;15.00;90.20;;;;;;5053837;28;20369;-38
2022/09/09 01:15:49;;;;;;;1.80;0.98;;;15.00;90.30;;;;;;5053784;28;20049;-39
2022/09/09 01:18:19;;;;;;;0.80;0.63;;;14.90;90.10;;;;;;5053626;28;20044;-37
2022/09/09 01:21:09;;;;;;;2.22;1.00;;;15.00;89.90;;;;;;5054229;28;20052;-38
2022/09/09 01:24:06;;;;;;;1.90;1.00;;;15.10;89.80;;;;;;5054003;28;20021;-38
2022/09/09 01:26:43;;;;;;;1.02;0.77;;;15.30;89.90;;;;;;5052688;28;20128;-39
2022/09/09 01:29:16;;;;;;;2.60;1.20;;;15.30;89.30;;;;;;5053583;28;20104;-38
2022/09/09 01:32:32;;;;;;;3.35;1.48;;;15.30;89.30;;;;;;5053527;28;20033;-39
2022/09/09 01:34:58;;;;;;;3.28;1.83;;;15.30;89.10;;;;;;5044302;28;20041;-39
2022/09/09 01:37:23;;;;;;;2.13;1.00;;;15.30;88.90;;;;;;5053393;28;20036;-39
2022/09/09 01:39:49;;;;;;;4.00;0.80;;;15.30;89.00;;;;;;5053256;28;20058;-38
2022/09/09 01:42:17;;;;;;;3.08;0.82;;;15.20;89.00;;;;;;5053435;28;20025;-38
2022/09/09 01:44:42;;;;;;;1.60;1.35;;;15.20;89.30;;;;;;5053126;28;20060;-38
2022/09/09 01:47:09;;;;;;;1.67;1.00;;;15.30;89.30;;;;;;5053254;28;20033;-38
2022/09/09 01:49:34;;;;;;;2.20;1.05;;;15.30;89.10;;;;;;5053092;28;20029;-38
2022/09/09 01:52:00;;;;;;;2.40;1.10;;;15.30;89.20;;;;;;5053046;28;20492;-40
2022/09/09 01:54:31;;;;;;;2.63;0.93;;;15.30;89.20;;;;;;5052799;28;20053;-38
2022/09/09 01:57:18;;;;;;;5.78;1.75;;;15.20;89.40;;;;;;5051296;28;20055;-40
2022/09/09 02:00:11;;;;;;;4.05;1.27;;;15.20;89.50;;;;;;5052981;28;20040;-38
2022/09/09 02:02:59;;;;;;;3.70;1.27;;;15.20;89.70;;;;;;5052924;28;20492;-37
2022/09/09 02:05:28;;;;;;;1.13;1.00;;;15.10;89.80;;;;;;5051721;28;20033;-38
2022/09/09 02:08:25;;;;;;;6.28;0.93;;;15.10;89.90;;;;;;5053192;28;20021;-38
2022/09/09 02:10:58;;;;;;;2.30;0.90;;;15.00;89.80;;;;;;5053451;28;20031;-39
2022/09/09 02:13:24;;;;;;;3.20;1.10;;;15.00;90.10;;;;;;5053154;28;20025;-40
2022/09/09 02:16:07;;;;;;;5.13;1.23;;;15.00;90.10;;;;;;5052852;28;20033;-38
2022/09/09 02:18:57;;;;;;;4.95;1.52;;;14.90;90.20;;;;;;5052981;28;20072;-38
2022/09/09 02:21:24;;;;;;;3.20;1.88;;;15.00;90.40;;;;;;5053087;28;20036;-39
2022/09/09 02:23:51;;;;;;;4.30;1.45;;;15.00;90.50;;;;;;5052678;28;20025;-39
2022/09/09 02:26:21;;;;;;;3.75;1.40;;;14.90;90.50;;;;;;5052393;28;20025;-38
2022/09/09 02:28:52;;;;;;;3.70;1.70;;;15.00;90.60;;;;;;5052703;28;20534;-38
2022/09/09 02:31:21;;;;;;;3.40;1.30;;;15.10;90.70;;;;;;5053076;28;20105;-40
2022/09/09 02:34:00;;;;;;;2.40;1.25;;;15.10;90.50;;;;;;5052171;28;20070;-38
2022/09/09 02:36:29;;;;;;;4.38;1.83;;;15.10;90.50;;;;;;5052300;28;20017;-38
2022/09/09 02:38:56;;;;;;;3.70;1.60;;;15.10;90.60;;;;;;5052803;28;20116;-38
2022/09/09 02:41:27;;;;;;;5.13;2.28;;;15.20;90.50;;;;;;5056372;28;20378;-38
2022/09/09 02:43:53;;;;;;;4.35;1.60;;;15.20;90.60;;;;;;5056734;28;20104;-39
2022/09/09 02:46:28;;;;;;;3.95;1.45;;;15.20;90.40;;;;;;5056533;28;20104;-39
2022/09/09 02:49:09;;;;;;;3.80;1.17;;;15.30;90.40;;;;;;5056287;28;20079;-39
2022/09/09 02:52:02;;;;;;;2.95;1.40;;;15.30;90.10;;;;;;5056245;28;20013;-39
2022/09/09 02:54:33;;;;;;;4.18;1.92;;;15.30;90.00;;;;;;5053700;28;20037;-39
2022/09/09 02:57:23;;;;;;;5.90;1.63;;;15.40;90.00;;;;;;5056096;28;20029;-38
2022/09/09 02:59:51;;;;;;;4.10;1.80;;;15.40;89.90;;;;;;5056239;28;20048;-38
2022/09/09 03:02:18;;;;;;;1.63;1.50;;;15.60;89.70;;;;;;5038208;28;20112;-37
2022/09/09 03:04:50;;;;;;;5.88;2.08;;;15.60;89.30;;;;;;5055969;28;20029;-43
2022/09/09 03:07:16;;;;;;;2.83;1.38;;;15.50;89.10;;;;;;5056589;28;20029;-39
2022/09/09 03:09:43;;;;;;;1.95;1.35;;;15.60;89.10;;;;;;5055910;28;20088;-39
2022/09/09 03:12:10;;;;;;;4.00;1.77;;;15.60;89.10;;;;;;5055890;28;20029;-39
2022/09/09 03:14:37;;;;;;;5.82;1.77;;;15.70;89.20;;;;;;5056013;28;20477;-38
2022/09/09 03:17:04;;;;;;;6.85;1.85;;;15.60;89.10;;;;;;5055387;28;20040;-38
2022/09/09 03:19:30;;;;;;;5.53;1.58;;;15.70;89.00;;;;;;5054587;28;20017;-39
2022/09/09 03:21:56;;;;;;;2.53;1.65;;;15.70;89.00;;;;;;5055836;28;20381;-38
2022/09/09 03:24:22;;;;;;;4.32;1.73;;;15.70;89.10;;;;;;5055783;28;20495;-39
2022/09/09 03:26:48;;;;;;;6.57;2.17;;;15.70;89.30;;;;;;5056166;28;20034;-44
2022/09/09 03:29:14;;;;;;;5.20;1.88;;;15.60;89.30;;;;;;5055635;28;20021;-44
2022/09/09 03:31:40;;;;;;;4.18;1.90;;;15.50;89.70;;;;;;5055963;28;20099;-39
2022/09/09 03:34:06;;;;;;;4.35;1.63;;;15.50;89.70;;;;;;5055693;28;20078;-47
2022/09/09 03:36:32;;;;;;;4.22;1.90;;;15.40;90.00;;;;;;5055918;28;20028;-38
2022/09/09 03:38:57;;;;;;;4.20;1.45;;;15.30;90.10;;;;;;5055555;28;20028;-38
2022/09/09 03:41:24;;;;;;;6.22;2.15;;;15.30;90.30;;;;;;5056006;28;20024;-40
2022/09/09 03:43:53;;;;;;;6.65;2.60;;;15.30;90.40;;;;;;5055492;28;20044;-38
2022/09/09 03:46:21;;;;;;;3.22;2.33;;;15.20;90.60;;;;;;5055557;28;20496;-38
2022/09/09 03:48:47;;;;;;;8.82;2.53;;;15.20;90.60;;;;;;5055042;28;20112;-39
2022/09/09 03:51:13;;;;;;;4.05;2.30;;;15.20;90.70;;;;;;5055570;28;20104;-38
2022/09/09 03:53:38;;;;;;;3.47;2.65;;;15.20;90.70;;;;;;5055480;28;20029;-38
2022/09/09 03:56:06;;;;;;;3.35;2.03;;;15.20;90.80;;;;;;5055276;28;20373;-39
2022/09/09 03:58:36;;;;;;;10.35;2.88;;;15.20;90.80;;;;;;5054916;28;20082;-38
2022/09/09 04:01:03;;;;;;;2.70;1.88;;;15.20;90.90;;;;;;5055002;28;20079;-38
2022/09/09 04:03:30;;;;;;;4.07;2.22;;;15.10;91.00;;;;;;5055020;28;20053;-39
2022/09/09 04:05:58;;;;;;;3.33;2.75;;;15.10;91.00;;;;;;5055317;28;20071;-38
2022/09/09 04:08:27;;;;;;;3.45;2.25;;;15.20;91.10;;;;;;5055173;28;20029;-38
2022/09/09 04:10:57;;;;;;;5.43;2.55;;;15.20;91.10;;;;;;5055078;28;20396;-38
2022/09/09 04:13:24;;;;;;;3.38;2.38;;;15.30;91.00;;;;;;5055310;28;20385;-39
2022/09/09 04:15:55;;;;;;;6.15;2.15;;;15.30;90.90;;;;;;5053685;28;20029;-38
2022/09/09 04:18:21;;;;;;;5.28;2.17;;;15.30;90.90;;;;;;5054908;28;20060;-39
2022/09/09 04:20:51;;;;;;;4.63;1.83;;;15.30;90.90;;;;;;5054764;28;20060;-39
2022/09/09 04:23:20;;;;;;;4.57;2.03;;;15.30;90.80;;;;;;5055448;28;20053;-38
2022/09/09 04:25:47;;;;;;;4.72;2.30;;;15.20;90.70;;;;;;5055187;28;20027;-39
2022/09/09 04:28:17;;;;;;;4.05;2.55;;;15.10;90.70;;;;;;5054793;28;20033;-38
2022/09/09 04:30:44;;;;;;;5.55;2.88;;;15.10;90.80;;;;;;5053394;28;20158;-38
2022/09/09 04:33:11;;;;;;;4.13;1.95;;;15.10;90.80;;;;;;5054508;28;20033;-38
2022/09/09 04:35:38;;;;;;;9.13;2.78;;;15.20;90.80;;;;;;5054989;28;20075;-38
2022/09/09 04:38:04;;;;;;;4.60;2.42;;;15.20;90.80;;;;;;5055078;28;20025;-38
2022/09/09 04:40:31;;;;;;;2.80;2.35;;;15.30;90.70;;;;;;5054535;28;20025;-38
2022/09/09 18:15:09;;;;;;;9.48;2.20;;;16.30;88.60;;;;;;5070682;28;20892;-39
2022/09/09 18:17:35;;;;;;;3.03;1.50;;;16.30;88.70;;;;;;5070080;28;20032;-46
2022/09/09 18:20:02;;;;;;;5.85;1.70;;;16.40;88.50;;;;;;5070597;28;20029;-39
2022/09/09 18:22:30;;;;;;;4.05;2.22;;;16.40;88.40;;;;;;5071743;28;20029;-40
2022/09/09 18:24:56;;;;;;;2.03;1.80;;;16.40;88.30;;;;;;5068790;28;20047;-40
2022/09/09 18:27:22;;;;;;;3.75;1.25;;;16.50;88.30;;;;;;5070841;28;20440;-41
2022/09/09 18:29:48;;;;;;;6.65;2.42;;;16.60;88.00;;;;;;5070066;28;20097;-40
2022/09/09 18:32:15;;;;;;;6.13;2.15;;;16.70;87.90;;;;;;5070578;28;20095;-41
2022/09/09 18:34:44;;;;;;;5.32;1.88;;;16.70;87.60;;;;;;5068805;28;20025;-41
2022/09/09 18:37:10;;;;;;;6.28;2.53;;;16.80;87.70;;;;;;5069731;28;20115;-40
2022/09/09 18:39:35;;;;;;;3.33;2.10;;;16.80;87.50;;;;;;5069557;28;20021;-40
2022/09/09 18:42:03;;;;;;;4.13;1.70;;;16.70;87.60;;;;;;5069645;28;20029;-40
2022/09/09 18:44:34;;;;;;;4.35;2.13;;;16.70;88.10;;;;;;5069630;28;20080;-40
2022/09/09 18:47:00;;;;;;;;;;;16.70;88.00;;;;;;5069947;28;20055;-39
2022/09/09 18:49:26;;;;;;;2.70;2.05;;;16.70;88.10;;;;;;5069422;28;20051;-41
2022/09/09 18:51:52;;;;;;;4.43;3.22;;;16.70;87.90;;;;;;5070143;28;20108;-39
2022/09/09 18:54:22;;;;;;;2.17;1.95;;;16.70;88.00;;;;;;5069286;28;20565;-39
2022/09/09 18:56:48;;;;;;;3.20;1.70;;;16.70;87.80;;;;;;5069973;28;20029;-39
2022/09/09 18:59:18;;;;;;;6.15;2.67;;;16.80;87.90;;;;;;5067876;28;20037;-40
2022/09/09 19:01:45;;;;;;;2.85;1.80;;;16.80;87.80;;;;;;5069445;28;20404;-39
2022/09/09 19:04:11;;;;;;;2.80;1.98;;;16.80;87.70;;;;;;5068383;28;20028;-39
2022/09/09 19:06:41;;;;;;;4.63;2.00;;;16.80;87.60;;;;;;5069178;28;20029;-39
2022/09/09 19:09:12;;;;;;;8.03;1.87;;;16.70;87.90;;;;;;5070696;28;20539;-39
2022/09/09 19:11:41;;;;;;;4.45;1.55;;;16.60;87.80;;;;;;5069623;28;20477;-39
2022/09/09 19:14:10;;;;;;;8.65;1.88;;;16.50;87.90;;;;;;5069062;28;20048;-40
2022/09/09 19:16:36;;;;;;;3.45;1.85;;;16.50;88.10;;;;;;5070310;28;20032;-39
2022/09/09 19:19:07;;;;;;;3.40;2.33;;;16.50;88.30;;;;;;5070582;28;20021;-39
2022/09/09 19:21:34;;;;;;;;;;;16.50;88.20;;;;;;5071492;28;20025;-41
2022/09/09 19:24:05;;;;;;;6.00;2.40;;;16.70;88.00;;;;;;5069255;28;20415;-40
2022/09/09 19:26:39;;;;;;;2.60;1.77;;;16.60;87.80;;;;;;5056017;28;20150;-39
2022/09/09 19:29:06;;;;;;;5.28;1.85;;;16.80;87.70;;;;;;5055955;28;20036;-39
2022/09/09 19:31:33;;;;;;;2.42;1.52;;;16.70;87.90;;;;;;5055221;28;20496;-42
2022/09/09 19:33:58;;;;;;;3.08;2.10;;;16.70;87.90;;;;;;5054724;28;20124;-40
2022/09/09 19:36:26;;;;;;;5.57;2.03;;;16.70;87.50;;;;;;5055666;28;20071;-39
2022/09/09 19:38:53;;;;;;;4.50;1.63;;;16.80;87.40;;;;;;5054520;28;20358;-39
2022/09/09 19:41:23;;;;;;;6.82;1.80;;;16.70;87.30;;;;;;5055040;28;20032;-39
2022/09/09 19:43:49;;;;;;;3.70;1.73;;;16.60;87.70;;;;;;5055614;28;20025;-39
2022/09/09 19:46:17;;;;;;;4.53;1.63;;;16.60;87.90;;;;;;5053921;28;20642;-40
2022/09/09 19:48:43;;;;;;;9.35;3.17;;;16.70;87.90;;;;;;5055286;28;20358;-40
2022/09/09 19:51:12;;;;;;;2.33;1.70;;;16.70;88.00;;;;;;5054906;28;20029;-39
2022/09/09 19:53:45;;;;;;;4.20;1.70;;;16.80;87.50;;;;;;5054789;28;20511;-39
2022/09/09 19:56:12;;;;;;;3.03;1.92;;;16.80;87.60;;;;;;5055014;28;20174;-38
2022/09/09 19:58:39;;;;;;;6.55;2.65;;;16.80;87.40;;;;;;5055367;28;20029;-39
2022/09/09 20:01:07;;;;;;;5.18;2.10;;;16.80;87.40;;;;;;5055086;28;20056;-39
2022/09/09 20:03:34;;;;;;;3.03;1.67;;;16.80;87.60;;;;;;5054677;28;20381;-40
2022/09/09 20:06:00;;;;;;;6.07;2.00;;;16.80;87.50;;;;;;5055011;28;20036;-39
2022/09/09 20:08:26;;;;;;;2.13;1.38;;;16.80;87.50;;;;;;5053571;28;20481;-40
2022/09/09 20:10:55;;;;;;;2.60;1.50;;;16.80;87.50;;;;;;5054809;28;20120;-39
2022/09/09 20:13:21;;;;;;;3.72;2.00;;;16.80;88.00;;;;;;5054469;28;20062;-39
2022/09/09 20:15:59;;;;;;;7.47;3.13;;;16.70;88.00;;;;;;5053271;28;20067;-38
2022/09/09 20:18:31;;;;;;;7.28;1.98;;;16.70;87.80;;;;;;5054793;28;20024;-44
2022/09/09 20:21:02;;;;;;;3.83;1.83;;;16.70;87.80;;;;;;5054788;28;20466;-40
2022/09/09 20:23:28;;;;;;;3.05;2.05;;;16.60;88.00;;;;;;5054488;28;20051;-42
2022/09/09 20:25:55;;;;;;;9.65;2.03;;;16.60;88.20;;;;;;5054463;28;20025;-39
2022/09/09 20:28:21;;;;;;;5.60;2.28;;;16.60;88.20;;;;;;5054852;28;20039;-39
2022/09/09 20:30:50;;;;;;;6.50;2.13;;;16.60;88.10;;;;;;5054342;28;20036;-39
2022/09/09 20:33:17;;;;;;;3.03;1.67;;;16.50;88.20;;;;;;5054486;28;20057;-39
2022/09/09 20:35:43;;;;;;;3.90;1.88;;;16.50;88.30;;;;;;5054245;28;20067;-40
2022/09/09 20:38:09;;;;;;;3.95;1.83;;;16.50;88.40;;;;;;5052870;28;20433;-39
2022/09/09 20:40:36;;;;;;;7.13;1.77;;;16.40;88.20;;;;;;5054055;28;20032;-40
2022/09/09 20:43:03;;;;;;;3.72;1.77;;;16.50;88.60;;;;;;5054422;28;20461;-39
2022/09/09 20:45:29;;;;;;;5.88;1.73;;;16.40;88.30;;;;;;5053201;28;20080;-39
2022/09/09 20:47:56;;;;;;;2.75;1.70;;;16.50;88.40;;;;;;5053849;28;20025;-39
2022/09/09 20:50:22;;;;;;;3.97;1.70;;;16.50;88.30;;;;;;5054276;28;20025;-39
2022/09/09 20:52:48;;;;;;;3.35;1.40;;;16.50;88.30;;;;;;5053829;28;20040;-39
2022/09/09 20:55:14;;;;;;;5.25;1.80;;;16.50;88.00;;;;;;5053066;28;20020;-40
2022/09/09 20:57:39;;;;;;;5.88;1.83;;;16.60;87.90;;;;;;5052407;28;20404;-39
2022/09/09 21:00:07;;;;;;;4.65;1.90;;;16.50;87.90;;;;;;5053923;28;20108;-39
2022/09/09 21:02:33;;;;;;;3.08;1.63;;;16.50;87.80;;;;;;5054016;28;20052;-39
2022/09/09 21:05:00;;;;;;;2.53;2.00;;;16.60;88.00;;;;;;5053767;28;20033;-40
2022/09/09 21:07:26;;;;;;;3.05;1.98;;;16.50;87.80;;;;;;5054155;28;20029;-38
2022/09/09 21:09:52;;;;;;;6.82;2.53;;;16.50;87.50;;;;;;5052548;28;20043;-38
2022/09/09 21:12:17;;;;;;;3.13;2.00;;;16.60;87.50;;;;;;5053715;28;20104;-39
2022/09/09 21:14:43;;;;;;;2.90;1.77;;;16.60;87.80;;;;;;5053411;28;20044;-38
2022/09/09 21:17:09;;;;;;;5.30;2.50;;;16.50;87.50;;;;;;5052587;28;20025;-40
2022/09/09 21:19:34;;;;;;;5.70;1.92;;;16.50;87.70;;;;;;5053892;28;20070;-39
2022/09/09 21:22:00;;;;;;;5.57;2.17;;;16.50;88.10;;;;;;5053702;28;20025;-39
2022/09/09 21:24:25;;;;;;;3.83;1.88;;;16.50;88.30;;;;;;5053475;28;20033;-39
2022/09/09 21:26:53;;;;;;;3.10;2.00;;;16.40;88.60;;;;;;5053300;28;20342;-39
2022/09/09 21:29:19;;;;;;;7.78;4.70;;;16.50;88.70;;;;;;5053082;28;20036;-39
2022/09/09 21:31:45;;;;;;;6.85;2.28;;;16.50;88.70;;;;;;5053885;28;20033;-39
2022/09/09 21:34:12;;;;;;;5.03;1.92;;;16.40;88.30;;;;;;5053120;28;20056;-39
2022/09/09 21:36:37;;;;;;;3.15;1.77;;;16.40;88.40;;;;;;5053655;28;20029;-39
2022/09/09 21:39:03;;;;;;;4.45;2.38;;;16.30;88.40;;;;;;5053317;28;20416;-39
2022/09/09 21:41:29;;;;;;;4.32;2.00;;;16.30;88.40;;;;;;5051790;28;20021;-39
2022/09/09 21:43:55;;;;;;;3.13;1.70;;;16.30;88.20;;;;;;5053204;28;20032;-39
2022/09/09 21:46:21;;;;;;;2.42;1.55;;;16.40;87.90;;;;;;5053300;28;20385;-39
2022/09/09 21:48:47;;;;;;;5.10;1.90;;;16.30;87.70;;;;;;5053201;28;20029;-39
2022/09/09 21:51:15;;;;;;;7.07;1.80;;;16.40;88.00;;;;;;5052989;28;20078;-39
2022/09/09 21:53:42;;;;;;;3.35;1.80;;;16.50;87.50;;;;;;5052780;28;20025;-39
2022/09/09 21:56:13;;;;;;;1.65;1.17;;;16.40;87.50;;;;;;5053262;28;20385;-39
2022/09/09 21:58:40;;;;;;;3.70;1.75;;;16.50;87.20;;;;;;5052784;28;20100;-39
2022/09/09 22:01:09;;;;;;;5.40;1.65;;;16.60;86.90;;;;;;5053072;28;20496;-39
2022/09/09 22:03:37;;;;;;;1.48;1.10;;;16.60;86.80;;;;;;5052653;28;20025;-39
2022/09/09 22:06:07;;;;;;;2.83;1.30;;;16.50;87.00;;;;;;5052804;28;20087;-39
2022/09/09 22:08:33;;;;;;;5.22;1.90;;;16.50;87.40;;;;;;5053016;28;20508;-38
2022/09/09 22:11:09;;;;;;;3.47;1.65;;;16.50;87.20;;;;;;5053461;28;20037;-38
2022/09/09 22:13:37;;;;;;;3.55;1.30;;;16.50;87.60;;;;;;5052730;28;20128;-39
2022/09/09 22:16:05;;;;;;;4.63;1.50;;;16.50;87.40;;;;;;5051507;28;20481;-39
2022/09/09 22:18:31;;;;;;;1.60;1.33;;;16.40;87.70;;;;;;5052902;28;20053;-39
2022/09/09 22:20:58;;;;;;;2.47;1.85;;;16.30;87.90;;;;;;5053026;28;20373;-38
2022/09/09 22:23:25;;;;;;;3.72;1.55;;;16.30;88.10;;;;;;5053040;28;20033;-39
2022/09/09 22:25:53;;;;;;;2.45;1.42;;;16.30;88.20;;;;;;5053119;28;20047;-38
2022/09/09 22:28:20;;;;;;;6.80;1.80;;;16.30;88.20;;;;;;5052433;28;20021;-38
2022/09/09 22:30:46;;;;;;;7.13;2.08;;;16.30;88.10;;;;;;5053000;28;20044;-39
2022/09/09 22:33:12;;;;;;;7.35;1.95;;;16.30;88.10;;;;;;5053279;28;20029;-40
2022/09/09 22:35:41;;;;;;;7.63;1.90;;;16.30;88.30;;;;;;5053593;28;20488;-38
2022/09/09 22:38:11;;;;;;;9.48;2.17;;;16.20;88.50;;;;;;5051719;28;20021;-39
2022/09/09 22:40:38;;;;;;;3.57;1.73;;;16.20;88.50;;;;;;5052686;28;20033;-39
2022/09/09 22:43:06;;;;;;;6.97;2.10;;;16.20;88.40;;;;;;5052915;28;20021;-39
2022/09/09 22:45:32;;;;;;;6.05;2.33;;;16.20;88.50;;;;;;5052746;28;20422;-42
2022/09/09 22:47:59;;;;;;;3.45;1.55;;;16.20;88.40;;;;;;5052969;28;20063;-38
2022/09/09 22:50:26;;;;;;;3.47;1.25;;;16.30;88.30;;;;;;5052342;28;20025;-38
2022/09/09 22:52:52;;;;;;;6.00;2.60;;;16.20;88.60;;;;;;5052600;28;20021;-38
2022/09/09 22:55:18;;;;;;;3.95;1.48;;;16.30;88.60;;;;;;5051198;28;20079;-38
2022/09/09 22:57:43;;;;;;;3.60;1.60;;;16.30;88.30;;;;;;5052728;28;20021;-39
2022/09/09 23:00:12;;;;;;;6.40;1.77;;;16.30;88.20;;;;;;5053572;28;20474;-39
2022/09/09 23:02:38;;;;;;;6.07;2.10;;;16.30;88.10;;;;;;5056570;28;20051;-38
2022/09/09 23:05:07;;;;;;;7.65;2.05;;;16.20;88.40;;;;;;5056656;28;20029;-39
2022/09/09 23:07:35;;;;;;;5.22;1.85;;;16.20;88.30;;;;;;5038553;28;20029;-39
2022/09/09 23:10:02;;;;;;;3.80;1.83;;;16.10;88.60;;;;;;5056299;28;20477;-39
2022/09/09 23:12:28;;;;;;;7.82;2.10;;;16.20;88.60;;;;;;5056161;28;20029;-39
2022/09/09 23:14:54;;;;;;;5.20;1.70;;;16.10;88.40;;;;;;5054842;28;20049;-38
2022/09/09 23:17:20;;;;;;;3.40;1.48;;;16.20;88.50;;;;;;5056079;28;20036;-38
2022/09/09 23:19:52;;;;;;;2.55;1.70;;;16.20;88.40;;;;;;5056285;28;20017;-38
2022/09/09 23:22:20;;;;;;;5.15;1.70;;;16.10;88.30;;;;;;5055500;28;20044;-39
2022/09/09 23:24:46;;;;;;;6.05;2.10;;;16.10;88.50;;;;;;5055937;28;20020;-39
2022/09/09 23:27:12;;;;;;;2.05;1.85;;;15.90;88.50;;;;;;5056078;28;20113;-38
2022/09/09 23:29:37;;;;;;;6.05;1.90;;;16.00;88.70;;;;;;5056215;28;20132;-39
2022/09/09 23:32:04;;;;;;;4.07;1.85;;;15.90;88.60;;;;;;5056305;28;20108;-39
2022/09/09 23:34:31;;;;;;;8.48;2.30;;;16.00;88.60;;;;;;5055833;28;20040;-38
2022/09/09 23:36:57;;;;;;;5.13;2.00;;;16.00;88.30;;;;;;5055611;28;20032;-39
2022/09/09 23:39:23;;;;;;;5.85;2.05;;;16.00;88.20;;;;;;5056013;28;20032;-38
2022/09/09 23:41:49;;;;;;;4.40;2.00;;;16.00;88.10;;;;;;5055853;28;20485;-39
2022/09/09 23:44:15;;;;;;;8.80;2.20;;;15.90;88.30;;;;;;5055963;28;20032;-38
2022/09/09 23:46:41;;;;;;;11.05;2.50;;;15.90;88.30;;;;;;5055759;28;20033;-38
2022/09/09 23:49:08;;;;;;;6.47;2.17;;;15.90;88.30;;;;;;5055383;28;20021;-38
2022/09/09 23:51:36;;;;;;;2.80;1.70;;;15.80;88.30;;;;;;5055377;28;20127;-39
2022/09/09 23:54:04;;;;;;;5.40;1.90;;;15.80;88.40;;;;;;5053955;28;20071;-40
2022/09/09 23:56:36;;;;;;;5.07;1.98;;;15.80;88.50;;;;;;5055294;28;20017;-39
2022/09/09 23:59:03;;;;;;;3.53;1.70;;;15.80;88.30;;;;;;5054353;28;20033;-39
